Terminal Aerodrome Forecast
Issued by NWS Blacksburg, VA

Current Version | Previous Version | Text Only | Print | Product List | Glossary Off
Versions: 1 2 3 4 5 6 7 8 9 10 11 12 13 14 15 16 17 18 19 20 21 22 23 24 25 26 27 28 29 30 31 32 33 34

000
FTUS41 KRNK 220538
TAFBLF
TAF
KBLF 220538Z 2206/2306 13003KT P6SM SCT014 BKN250
     FM221000 12003KT 4SM BR SCT005 BKN250
      TEMPO 2210/2212 OVC005
     FM221400 14004KT P6SM OVC025
     FM221600 14004KT P6SM BKN040
     FM230000 15003KT P6SM SCT040 BKN250=

USA.gov is the U.S. government's official web portal to all federal, state and local government web resources and services.